createdAt,value
2022-10-10T00:01:18.759Z,3.05
2022-10-10T00:03:46.064Z,1.85
2022-10-10T00:06:16.069Z,4.15
2022-10-10T00:08:44.166Z,3.35
2022-10-10T00:13:38.727Z,1.65
2022-10-10T00:16:06.333Z,1.40
2022-10-10T00:18:33.812Z,2.25
2022-10-10T00:21:01.178Z,2.60
2022-10-10T00:23:28.618Z,2.20
2022-10-10T00:25:56.295Z,2.90
2022-10-10T00:28:23.720Z,3.47
2022-10-10T00:30:50.841Z,2.15
2022-10-10T00:33:17.906Z,2.43
2022-10-10T00:35:45.119Z,5.53
2022-10-10T00:38:12.650Z,5.18
2022-10-10T00:40:52.590Z,1.23
2022-10-10T00:43:20.922Z,1.75
2022-10-10T00:45:48.795Z,3.00
2022-10-10T00:48:22.648Z,1.27
2022-10-10T00:50:58.821Z,2.47
2022-10-10T00:53:31.481Z,1.92
2022-10-10T00:55:59.911Z,3.88
2022-10-10T00:58:27.164Z,2.22
2022-10-10T01:00:55.089Z,2.80
2022-10-10T01:05:51.483Z,2.90
2022-10-10T01:08:21.463Z,2.65
2022-10-10T01:11:06.712Z,2.33
2022-10-10T01:14:05.533Z,3.33
2022-10-10T01:16:47.664Z,6.03
2022-10-10T01:19:29.773Z,3.72
2022-10-10T01:22:27.242Z,4.00
2022-10-10T01:25:17.643Z,3.08
2022-10-10T01:27:53.965Z,4.03
2022-10-10T01:30:25.441Z,5.03
2022-10-10T01:32:54.667Z,4.45
2022-10-10T01:35:33.321Z,3.42
2022-10-10T01:38:06.565Z,3.05
2022-10-10T01:40:48.037Z,4.20
2022-10-10T01:43:15.389Z,2.88
2022-10-10T01:45:48.574Z,3.97
2022-10-10T01:48:19.134Z,3.78
2022-10-10T01:51:12.266Z,2.80
2022-10-10T01:54:00.510Z,3.10
2022-10-10T01:56:48.127Z,3.10
2022-10-10T01:59:33.418Z,3.17
2022-10-10T02:02:09.398Z,2.58
2022-10-10T02:05:05.057Z,1.13
2022-10-10T02:07:39.488Z,2.15
2022-10-10T02:10:08.367Z,2.00
2022-10-10T02:12:36.887Z,2.10
2022-10-10T02:15:17.546Z,1.65
2022-10-10T02:17:48.023Z,2.80
2022-10-10T02:20:18.675Z,2.75
2022-10-10T02:22:47.346Z,2.10
2022-10-10T02:25:15.032Z,2.60
2022-10-10T02:28:06.977Z,2.40
2022-10-10T02:30:40.813Z,2.00
2022-10-10T02:33:09.145Z,3.97
2022-10-10T02:35:41.382Z,4.63
2022-10-10T02:38:12.439Z,2.03
2022-10-10T02:40:42.904Z,1.33
2022-10-10T02:43:12.165Z,4.03
2022-10-10T02:45:41.330Z,2.83
2022-10-10T02:48:09.087Z,1.08
2022-10-10T02:50:36.346Z,3.05
2022-10-10T02:53:03.458Z,4.63
2022-10-10T02:55:30.402Z,5.20
2022-10-10T02:57:59.987Z,4.07
2022-10-10T03:00:27.146Z,1.98
2022-10-10T03:02:54.468Z,3.80
2022-10-10T03:05:21.769Z,2.30
2022-10-10T03:07:49.204Z,3.07
2022-10-10T03:10:16.297Z,3.08
2022-10-10T03:12:43.462Z,3.10
2022-10-10T03:15:11.915Z,3.45
2022-10-10T03:17:39.443Z,2.10
2022-10-10T03:20:07.610Z,1.02
2022-10-10T03:22:34.853Z,2.35
2022-10-10T03:25:02.170Z,2.35
2022-10-10T03:27:29.343Z,1.70
2022-10-10T03:29:56.453Z,1.13
2022-10-10T03:32:23.939Z,3.45
2022-10-10T03:34:51.013Z,2.75
2022-10-10T03:37:18.422Z,2.97
2022-10-10T03:39:45.524Z,5.28
2022-10-10T03:42:12.784Z,3.95
2022-10-10T03:44:39.897Z,1.40
2022-10-10T03:47:06.958Z,5.00
2022-10-10T03:49:33.997Z,3.00
2022-10-10T03:52:02.031Z,4.82
2022-10-10T03:56:55.948Z,1.70
2022-10-10T03:59:23.284Z,2.00
2022-10-10T04:01:50.768Z,2.42
2022-10-10T04:04:17.895Z,2.10
2022-10-10T04:06:45.021Z,1.92
2022-10-10T04:09:12.265Z,3.17
2022-10-10T04:11:41.259Z,3.42
2022-10-10T04:14:08.293Z,3.80
2022-10-10T04:16:35.526Z,2.87
2022-10-10T04:19:02.734Z,3.88
2022-10-10T04:21:29.865Z,3.50
2022-10-10T04:23:57.060Z,2.08
2022-10-10T04:26:24.202Z,3.22
2022-10-10T04:28:54.351Z,4.93
2022-10-10T04:31:21.680Z,2.72
2022-10-10T04:33:48.942Z,2.60
2022-10-10T04:36:16.328Z,3.03
2022-10-10T04:38:43.987Z,2.58
2022-10-10T04:41:11.216Z,5.10
2022-10-10T04:43:38.326Z,3.95
2022-10-10T04:46:05.646Z,3.47
2022-10-10T04:48:32.994Z,3.58
2022-10-10T04:51:00.411Z,3.60
2022-10-10T04:53:28.185Z,4.45
2022-10-10T04:55:55.557Z,3.28
2022-10-10T04:58:22.698Z,2.92
2022-10-10T05:00:54.087Z,2.55
2022-10-10T05:03:26.263Z,3.35
2022-10-10T05:05:53.634Z,2.38
2022-10-10T05:08:21.483Z,2.92
2022-10-10T05:10:49.083Z,3.88
2022-10-10T05:13:17.353Z,2.28
2022-10-10T05:15:45.440Z,2.70
2022-10-10T05:20:39.328Z,1.52
2022-10-10T05:23:30.109Z,3.08
2022-10-10T05:25:57.172Z,3.75
2022-10-10T05:28:26.922Z,2.10
2022-10-10T05:30:54.267Z,3.45
2022-10-10T05:33:21.503Z,2.15
2022-10-10T05:35:48.561Z,3.22
2022-10-10T05:38:15.656Z,4.93
2022-10-10T05:40:45.930Z,5.15
2022-10-10T05:43:13.000Z,12.32
2022-10-10T05:45:40.296Z,5.07
2022-10-10T05:48:07.223Z,7.15
2022-10-10T05:50:38.770Z,8.90
2022-10-10T05:53:07.275Z,6.63
2022-10-10T05:55:35.564Z,6.68
2022-10-10T05:58:03.154Z,7.32
2022-10-10T06:00:30.258Z,8.55
2022-10-10T06:02:58.816Z,6.80
2022-10-10T06:05:25.929Z,7.80
2022-10-10T06:08:07.570Z,6.97
2022-10-10T06:10:40.246Z,7.63
2022-10-10T06:13:07.167Z,5.10
2022-10-10T06:15:34.425Z,9.20
2022-10-10T06:18:01.776Z,5.15
2022-10-10T06:20:29.286Z,7.75
2022-10-10T06:22:59.654Z,5.75
2022-10-10T06:25:40.072Z,6.85
2022-10-10T06:28:09.761Z,9.77
2022-10-10T06:30:41.753Z,5.38
2022-10-10T06:33:12.585Z,5.65
2022-10-10T06:35:44.554Z,6.35
2022-10-10T06:38:15.798Z,5.82
2022-10-10T06:40:43.275Z,4.32
2022-10-10T06:43:12.627Z,4.85
2022-10-10T06:45:44.860Z,3.00
2022-10-10T06:48:13.747Z,6.38
2022-10-10T06:50:55.335Z,4.20
2022-10-10T06:53:22.496Z,4.40
2022-10-10T06:55:49.480Z,5.20
2022-10-10T06:58:37.623Z,4.43
2022-10-10T07:01:09.461Z,3.67
2022-10-10T07:03:46.471Z,4.03
2022-10-10T07:06:14.506Z,3.88
2022-10-10T07:08:45.626Z,4.05
2022-10-10T07:11:18.678Z,3.42
2022-10-10T07:13:59.486Z,7.15
2022-10-10T07:16:48.499Z,4.55
2022-10-10T07:19:20.468Z,4.85
2022-10-10T07:21:52.825Z,5.15
2022-10-10T07:24:33.601Z,4.35
2022-10-10T07:27:06.292Z,5.78
2022-10-10T07:29:35.844Z,6.60
2022-10-10T07:32:04.975Z,5.22
2022-10-10T07:34:32.032Z,5.75
2022-10-10T07:37:02.126Z,7.43
2022-10-10T07:39:29.521Z,3.83
2022-10-10T07:41:56.612Z,4.35
2022-10-10T07:44:29.313Z,3.20
2022-10-10T07:46:58.512Z,3.88
2022-10-10T07:49:26.387Z,3.53
2022-10-10T07:51:55.944Z,3.33
2022-10-10T07:54:24.855Z,4.90
2022-10-10T07:56:51.927Z,2.03
2022-10-10T07:59:19.299Z,3.85
2022-10-10T08:01:57.783Z,6.00
2022-10-10T08:04:35.591Z,2.88
2022-10-10T08:07:03.083Z,3.25
2022-10-10T08:09:30.071Z,2.80
2022-10-10T08:11:57.353Z,4.50
2022-10-10T08:14:25.007Z,4.43
2022-10-10T08:16:52.173Z,6.22
2022-10-10T08:19:19.631Z,2.88
2022-10-10T08:21:52.985Z,3.05
2022-10-10T08:24:20.294Z,3.38
2022-10-10T08:26:51.378Z,4.03
2022-10-10T08:29:19.598Z,4.25
2022-10-10T08:31:46.821Z,3.25
2022-10-10T08:34:14.686Z,4.03
2022-10-10T08:36:42.191Z,3.13
2022-10-10T08:39:11.181Z,3.38
2022-10-10T08:41:56.132Z,2.08
2022-10-10T08:44:29.855Z,2.80
2022-10-10T08:47:20.923Z,3.33
2022-10-10T08:49:58.833Z,3.13
2022-10-10T08:52:42.798Z,4.90
2022-10-10T08:55:20.575Z,2.95
2022-10-10T08:58:05.873Z,2.90
2022-10-10T09:00:45.155Z,5.82
2022-10-10T09:03:24.755Z,3.17
2022-10-10T09:06:08.267Z,3.40
2022-10-10T09:09:00.269Z,5.82
2022-10-10T09:11:43.320Z,2.00
2022-10-10T09:14:32.229Z,3.20
2022-10-10T09:20:07.648Z,3.60
2022-10-10T09:23:04.307Z,2.78
2022-10-10T09:25:36.048Z,4.43
2022-10-10T09:28:13.384Z,3.38
2022-10-10T09:33:22.209Z,4.03
2022-10-10T09:35:51.961Z,4.43
2022-10-10T09:38:31.066Z,2.85
2022-10-10T09:41:17.567Z,5.18
2022-10-10T09:43:44.867Z,3.55
2022-10-10T09:46:11.849Z,3.17
2022-10-10T09:48:41.764Z,4.28
2022-10-10T09:51:17.511Z,2.83
2022-10-10T09:53:46.249Z,4.72
2022-10-10T09:56:26.486Z,3.67
2022-10-10T09:58:55.800Z,4.65
2022-10-10T10:01:31.292Z,2.97
2022-10-10T10:04:33.207Z,4.72
2022-10-10T10:07:29.742Z,3.60
2022-10-10T10:09:59.601Z,3.20
2022-10-10T10:12:37.924Z,3.78
2022-10-10T10:15:07.393Z,3.38
2022-10-10T10:17:34.816Z,3.50
2022-10-10T10:20:25.875Z,5.10
2022-10-10T10:25:36.532Z,3.33
2022-10-10T10:28:13.184Z,2.50
2022-10-10T10:30:41.091Z,3.42
2022-10-10T10:33:17.095Z,2.83
2022-10-10T10:36:06.493Z,3.83
2022-10-10T10:39:07.855Z,2.47
2022-10-10T10:41:43.901Z,2.80
2022-10-10T10:44:13.861Z,3.33
2022-10-10T10:47:25.436Z,3.03
2022-10-10T10:50:02.009Z,2.17
2022-10-10T10:52:47.391Z,3.07
2022-10-10T10:55:43.693Z,2.25
2022-10-10T11:01:55.356Z,3.10
2022-10-10T11:07:23.881Z,6.28
2022-10-10T11:10:12.308Z,3.65
2022-10-10T11:12:59.924Z,3.33
2022-10-10T11:16:06.069Z,8.18
2022-10-10T11:18:43.085Z,3.58
2022-10-10T11:21:16.510Z,4.03
2022-10-10T11:23:57.015Z,4.38
2022-10-10T11:26:56.225Z,5.82
2022-10-10T11:29:35.647Z,2.72
2022-10-10T11:35:16.197Z,4.15
2022-10-10T11:37:50.692Z,1.70
2022-10-10T11:40:52.859Z,5.85
2022-10-10T11:43:46.086Z,4.03
2022-10-10T11:46:26.904Z,4.18
2022-10-10T11:49:04.835Z,5.40
2022-10-10T11:52:09.504Z,3.10
2022-10-10T11:55:10.678Z,4.40
2022-10-10T11:57:44.509Z,3.03
2022-10-10T12:00:16.828Z,5.45
2022-10-10T12:02:46.859Z,4.05
2022-10-10T12:05:26.033Z,3.95
2022-10-10T12:08:17.958Z,2.75
2022-10-10T12:10:48.440Z,4.00
2022-10-10T12:13:39.375Z,3.53
2022-10-10T12:16:13.611Z,4.20
2022-10-10T12:18:54.029Z,4.57
2022-10-10T12:21:30.371Z,4.80
2022-10-10T12:24:14.926Z,4.72
2022-10-10T12:26:56.943Z,2.63
2022-10-10T12:29:51.273Z,1.92
2022-10-10T12:32:21.565Z,3.00
2022-10-10T12:34:48.548Z,3.05
2022-10-10T12:37:33.643Z,3.42
2022-10-10T12:40:06.854Z,2.80
2022-10-10T12:42:49.382Z,5.90
2022-10-10T12:45:31.708Z,3.08
2022-10-10T12:48:06.655Z,3.85
2022-10-10T12:50:41.415Z,3.20
2022-10-10T12:53:14.324Z,2.40
2022-10-10T12:55:58.030Z,3.13
2022-10-10T12:58:40.189Z,3.22
2022-10-10T13:01:23.001Z,2.33
2022-10-10T13:03:50.912Z,3.00
2022-10-10T13:06:45.412Z,2.85
2022-10-10T13:09:22.719Z,1.67
2022-10-10T13:12:00.860Z,5.07
2022-10-10T13:14:42.724Z,3.95
2022-10-10T13:17:26.865Z,4.63
2022-10-10T13:19:56.030Z,3.30
2022-10-10T13:22:24.426Z,3.20
2022-10-10T13:24:52.650Z,2.35
2022-10-10T13:28:18.190Z,3.60
2022-10-10T13:30:46.150Z,3.53
2022-10-10T13:33:21.458Z,2.63
2022-10-10T13:35:50.721Z,3.63
2022-10-10T13:38:23.517Z,7.10
2022-10-10T13:40:50.692Z,3.92
2022-10-10T13:43:19.721Z,4.45
2022-10-10T13:46:04.430Z,3.25
2022-10-10T13:48:34.404Z,5.57
2022-10-10T13:51:07.709Z,3.30
2022-10-10T13:53:47.172Z,3.95
2022-10-10T13:56:26.316Z,5.70
2022-10-10T13:59:01.536Z,3.28
2022-10-10T14:01:46.677Z,3.60
2022-10-10T14:04:13.548Z,2.83
2022-10-10T14:06:54.428Z,3.92
2022-10-10T14:09:30.171Z,3.58
2022-10-10T14:12:00.419Z,3.38
2022-10-10T14:14:40.723Z,5.43
2022-10-10T14:17:10.253Z,4.10
2022-10-10T14:19:37.797Z,2.58
2022-10-10T14:22:05.098Z,10.15
2022-10-10T14:24:32.314Z,5.00
2022-10-10T14:27:11.095Z,4.35
2022-10-10T14:29:39.304Z,5.90
2022-10-10T14:32:06.863Z,3.83
2022-10-10T14:34:33.778Z,5.95
2022-10-10T14:37:01.005Z,4.95
2022-10-10T14:39:28.013Z,5.53
2022-10-10T14:41:55.540Z,3.40
2022-10-10T14:44:22.768Z,3.78
2022-10-10T14:46:49.928Z,7.50
2022-10-10T14:49:19.961Z,2.88
2022-10-10T14:51:48.139Z,4.47
2022-10-10T14:54:16.025Z,4.82
2022-10-10T14:57:08.899Z,4.20
2022-10-10T14:59:48.819Z,3.15
2022-10-10T15:02:21.042Z,3.28
2022-10-10T15:04:48.721Z,3.28
2022-10-10T15:12:39.213Z,3.17
2022-10-10T15:15:07.515Z,5.90
2022-10-10T15:17:35.369Z,3.47
2022-10-10T15:20:04.541Z,2.92
2022-10-10T15:22:31.775Z,4.05
2022-10-10T15:24:59.379Z,4.13
2022-10-10T15:27:28.451Z,3.70
2022-10-10T15:29:55.983Z,4.07
2022-10-10T15:32:23.164Z,4.65
2022-10-10T15:34:51.411Z,3.30
2022-10-10T15:37:19.342Z,4.70
2022-10-10T15:39:46.459Z,4.75
2022-10-10T15:42:19.947Z,4.32
2022-10-10T15:44:49.899Z,4.45
2022-10-10T15:47:18.406Z,12.52
2022-10-10T15:49:45.528Z,4.70
2022-10-10T15:52:12.591Z,10.27
2022-10-10T15:54:40.215Z,4.65
2022-10-10T15:57:07.446Z,4.80
2022-10-10T15:59:36.889Z,6.05
2022-10-10T16:02:06.333Z,8.73
2022-10-10T16:04:33.246Z,6.38
2022-10-10T16:07:23.161Z,5.67
2022-10-10T16:09:47.187Z,5.85
2022-10-10T16:12:14.467Z,7.22
2022-10-10T16:14:41.603Z,5.55
2022-10-10T16:17:09.416Z,4.80
2022-10-10T16:22:03.190Z,5.97
2022-10-10T16:24:30.792Z,6.28
2022-10-10T16:26:59.731Z,3.92
2022-10-10T16:29:26.684Z,7.13
2022-10-10T16:31:53.923Z,6.57
2022-10-10T16:34:21.167Z,7.90
2022-10-10T16:36:48.182Z,9.07
2022-10-10T16:39:15.278Z,8.73
2022-10-10T16:41:47.981Z,7.80
2022-10-10T16:44:17.405Z,6.78
2022-10-10T16:46:44.883Z,7.72
2022-10-10T16:49:20.622Z,8.63
2022-10-10T16:51:47.617Z,6.45
2022-10-10T16:54:14.733Z,6.20
2022-10-10T16:56:42.118Z,13.15
2022-10-10T16:59:09.234Z,8.18
2022-10-10T17:01:36.625Z,7.43
2022-10-10T17:04:04.485Z,10.75
2022-10-10T17:09:10.160Z,12.27
2022-10-10T17:11:37.856Z,11.32
2022-10-10T17:14:05.055Z,11.82
2022-10-10T17:19:22.148Z,9.98
2022-10-10T17:21:49.238Z,11.30
2022-10-10T17:24:22.744Z,8.65
2022-10-10T17:26:49.997Z,12.73
2022-10-10T17:29:17.388Z,11.00
2022-10-10T17:31:44.503Z,11.25
2022-10-10T17:34:11.862Z,13.75
2022-10-10T17:36:38.885Z,13.35
2022-10-10T17:39:07.718Z,11.85
2022-10-10T17:41:35.056Z,11.40
2022-10-10T17:44:02.845Z,9.82
2022-10-10T17:46:35.936Z,8.35
2022-10-10T17:49:08.124Z,7.40
2022-10-10T17:51:36.867Z,8.40
2022-10-10T17:54:05.166Z,11.40
2022-10-10T17:56:32.706Z,7.90
2022-10-10T17:59:01.927Z,6.53
2022-10-10T18:01:31.122Z,6.10
2022-10-10T18:03:59.090Z,10.20
2022-10-10T18:08:54.592Z,8.52
2022-10-10T18:11:26.577Z,7.78
2022-10-10T18:14:01.132Z,5.75
2022-10-10T18:16:30.746Z,5.45
2022-10-10T18:19:01.823Z,7.45
2022-10-10T18:21:28.898Z,8.20
2022-10-10T18:23:56.881Z,6.07
2022-10-10T18:26:26.848Z,6.45
2022-10-10T18:28:56.022Z,8.32
2022-10-10T18:31:27.248Z,4.32
2022-10-10T18:33:54.626Z,5.32
2022-10-10T18:36:25.504Z,4.28
2022-10-10T18:38:52.621Z,4.22
2022-10-10T18:41:22.860Z,7.90
2022-10-10T18:43:51.268Z,6.53
2022-10-10T18:46:22.769Z,7.53
2022-10-10T18:48:54.025Z,8.02
2022-10-10T18:51:26.871Z,4.95
2022-10-10T18:53:57.533Z,6.10
2022-10-10T18:56:25.002Z,5.35
2022-10-10T18:58:56.338Z,5.10
2022-10-10T19:01:25.651Z,8.18
2022-10-10T19:03:54.079Z,6.97
2022-10-10T19:06:23.013Z,6.13
2022-10-10T19:08:52.578Z,6.70
2022-10-10T19:11:25.965Z,4.40
2022-10-10T19:13:53.932Z,4.70
2022-10-10T19:16:22.234Z,4.10
2022-10-10T19:18:49.367Z,5.60
2022-10-10T19:21:17.140Z,4.50
2022-10-10T19:23:44.954Z,4.55
2022-10-10T19:26:15.582Z,6.05
2022-10-10T19:28:43.763Z,7.53
2022-10-10T19:31:13.976Z,5.15
2022-10-10T19:33:42.285Z,4.32
2022-10-10T19:36:10.730Z,4.13
2022-10-10T19:38:39.408Z,5.20
2022-10-10T19:41:09.171Z,5.10
2022-10-10T19:43:36.335Z,5.30
2022-10-10T19:46:08.051Z,4.18
2022-10-10T19:48:37.222Z,6.40
2022-10-10T19:51:06.212Z,4.13
2022-10-10T19:53:34.269Z,5.20
2022-10-10T19:56:13.072Z,4.35
2022-10-10T19:58:44.245Z,3.72
2022-10-10T20:01:14.295Z,6.40
2022-10-10T20:03:53.195Z,7.25
2022-10-10T20:06:21.508Z,4.55
2022-10-10T20:08:49.449Z,6.40
2022-10-10T20:16:11.804Z,5.03
2022-10-10T20:18:43.876Z,5.80
2022-10-10T20:21:17.295Z,3.45
2022-10-10T20:23:48.112Z,4.18
2022-10-10T20:26:18.539Z,6.55
2022-10-10T20:28:47.266Z,4.32
2022-10-10T20:31:18.902Z,6.22
2022-10-10T20:33:47.199Z,5.13
2022-10-10T20:36:14.683Z,4.00
2022-10-10T20:38:42.149Z,5.90
2022-10-10T20:41:09.873Z,6.68
2022-10-10T20:43:42.219Z,5.57
2022-10-10T20:46:11.126Z,5.53
2022-10-10T20:48:38.446Z,6.70
2022-10-10T20:51:10.846Z,5.93
2022-10-10T20:53:39.342Z,5.40
2022-10-10T20:56:08.380Z,5.57
2022-10-10T20:58:37.367Z,7.05
2022-10-10T21:01:12.871Z,6.88
2022-10-10T21:03:41.414Z,6.45
2022-10-10T21:06:12.283Z,5.55
2022-10-10T21:08:40.362Z,5.38
2022-10-10T21:11:09.403Z,4.55
2022-10-10T21:13:52.893Z,5.72
2022-10-10T21:16:32.144Z,3.70
2022-10-10T21:19:11.835Z,6.00
2022-10-10T21:21:43.815Z,4.88
2022-10-10T21:24:14.653Z,11.70
2022-10-10T21:26:42.732Z,5.38
2022-10-10T21:29:28.511Z,5.30
2022-10-10T21:32:44.622Z,4.45
2022-10-10T21:35:13.873Z,4.38
2022-10-10T21:37:42.525Z,5.20
2022-10-10T21:40:10.326Z,4.55
2022-10-10T21:42:37.309Z,4.07
2022-10-10T21:45:04.801Z,4.67
2022-10-10T21:47:32.014Z,5.78
2022-10-10T21:49:58.955Z,3.80
2022-10-10T21:52:25.914Z,4.93
2022-10-10T21:54:52.935Z,3.20
2022-10-10T21:57:21.169Z,5.03
2022-10-10T21:59:48.081Z,4.57
2022-10-10T22:02:15.107Z,4.20
2022-10-10T22:04:42.043Z,4.37
2022-10-10T22:07:09.272Z,6.72
2022-10-10T22:09:36.307Z,4.65
2022-10-10T22:12:03.368Z,4.28
2022-10-10T22:14:30.528Z,6.88
2022-10-10T22:16:57.495Z,5.90
2022-10-10T22:19:24.784Z,3.93
2022-10-10T22:21:51.731Z,8.07
2022-10-10T22:24:18.833Z,6.17
2022-10-10T22:26:46.139Z,3.53
2022-10-10T22:29:13.337Z,5.10
2022-10-10T22:31:40.481Z,5.75
2022-10-10T22:34:07.649Z,5.63
2022-10-10T22:36:34.822Z,4.43
2022-10-10T22:39:01.917Z,4.35
2022-10-10T22:41:28.962Z,4.15
2022-10-10T22:43:56.153Z,4.23
2022-10-10T22:46:23.334Z,3.55
2022-10-10T22:49:09.061Z,5.68
2022-10-10T22:51:35.970Z,4.57
2022-10-10T22:54:02.954Z,6.90
2022-10-10T22:56:30.433Z,5.40
2022-10-10T22:58:57.346Z,6.85
2022-10-10T23:01:26.640Z,5.13
2022-10-10T23:03:55.886Z,4.25
2022-10-10T23:06:23.699Z,2.63
2022-10-10T23:08:51.090Z,3.40
2022-10-10T23:11:18.428Z,4.47
2022-10-10T23:13:45.508Z,4.47
2022-10-10T23:16:12.571Z,3.00
2022-10-10T23:18:39.526Z,6.35
2022-10-10T23:21:06.525Z,5.70
2022-10-10T23:23:33.521Z,7.00
2022-10-10T23:26:05.956Z,4.15
2022-10-10T23:28:34.029Z,4.38
2022-10-10T23:31:02.400Z,4.47
2022-10-10T23:33:32.233Z,4.28
2022-10-10T23:36:08.771Z,4.18
2022-10-10T23:38:36.352Z,4.38
2022-10-10T23:41:03.675Z,5.28
2022-10-10T23:43:30.730Z,5.57
2022-10-10T23:45:57.764Z,6.53
2022-10-10T23:48:24.804Z,5.77
2022-10-10T23:50:51.985Z,5.73
2022-10-10T23:53:19.645Z,5.97
2022-10-10T23:55:48.249Z,4.68
2022-10-10T23:58:16.226Z,5.28
